createdAt,value
2024-04-24T00:00:57.973Z,93552.50
2024-04-24T00:01:55.007Z,93555.69
2024-04-24T00:02:54.033Z,93560.75
2024-04-24T00:03:51.094Z,93574.97
2024-04-24T00:04:48.146Z,93582.41
2024-04-24T00:05:45.132Z,93562.78
2024-04-24T00:06:42.126Z,93569.44
2024-04-24T00:07:39.226Z,93567.06
2024-04-24T00:08:36.179Z,93579.16
2024-04-24T00:09:33.127Z,93574.13
2024-04-24T00:10:30.103Z,93550.41
2024-04-24T00:11:27.631Z,93548.47
2024-04-24T00:12:24.891Z,93549.09
2024-04-24T00:13:22.022Z,93525.56
2024-04-24T00:14:19.063Z,93565.22
2024-04-24T00:15:16.386Z,93569.22
2024-04-24T00:16:13.379Z,93562.31
2024-04-24T00:17:11.498Z,93553.66
2024-04-24T00:18:08.576Z,93566.03
2024-04-24T00:19:05.614Z,93550.09
2024-04-24T00:20:02.793Z,93555.88
2024-04-24T00:20:59.899Z,93553.78
2024-04-24T00:21:56.862Z,93557.75
2024-04-24T00:22:53.897Z,93564.34
2024-04-24T00:23:50.902Z,93527.81
2024-04-24T00:24:47.861Z,93562.22
2024-04-24T00:25:44.858Z,93563.25
2024-04-24T00:26:42.459Z,93544.16
2024-04-24T00:27:39.433Z,93537.31
2024-04-24T00:28:36.391Z,93571.38
2024-04-24T00:29:33.399Z,93534.09
2024-04-24T00:30:30.419Z,93579.84
2024-04-24T00:31:27.379Z,93543.41
2024-04-24T00:32:24.469Z,93545.16
2024-04-24T00:33:21.536Z,93588.66
2024-04-24T00:34:18.656Z,93580.22
2024-04-24T00:35:15.702Z,93578.94
2024-04-24T00:36:12.790Z,93577.06
2024-04-24T00:37:09.765Z,93567.16
2024-04-24T00:38:06.833Z,93584.25
2024-04-24T00:39:03.895Z,93539.81
2024-04-24T00:40:00.872Z,93570.31
2024-04-24T00:40:57.943Z,93591.16
2024-04-24T00:41:54.998Z,93589.59
2024-04-24T00:42:52.032Z,93599.66
2024-04-24T00:43:49.144Z,93581.47
2024-04-24T00:44:46.193Z,93546.03
2024-04-24T00:45:45.954Z,93544.44
2024-04-24T00:46:47.045Z,93547.72
2024-04-24T00:47:45.075Z,93550.41
2024-04-24T00:48:45.013Z,93581.06
2024-04-24T00:49:44.216Z,93569.41
2024-04-24T00:50:42.278Z,93582.66
2024-04-24T00:51:41.420Z,93530.53
2024-04-24T00:52:38.483Z,93544.03
2024-04-24T00:53:36.628Z,93544.66
2024-04-24T00:54:33.688Z,93547.66
2024-04-24T00:55:32.993Z,93557.91
2024-04-24T00:56:30.317Z,93591.00
2024-04-24T00:57:27.385Z,93584.63
2024-04-24T00:58:24.482Z,93590.19
2024-04-24T00:59:21.736Z,93575.81
2024-04-24T01:00:20.293Z,93503.50
2024-04-24T01:01:19.645Z,93581.28
2024-04-24T01:02:17.153Z,93596.94
2024-04-24T01:03:14.576Z,93587.28
2024-04-24T01:04:11.644Z,93576.75
2024-04-24T01:05:08.909Z,93630.56
2024-04-24T01:06:06.467Z,93628.72
2024-04-24T01:07:04.183Z,93611.06
2024-04-24T01:08:01.303Z,93632.50
2024-04-24T01:08:58.434Z,93630.69
2024-04-24T01:09:55.459Z,93624.31
2024-04-24T01:11:01.829Z,93625.47
2024-04-24T01:12:01.745Z,93631.28
2024-04-24T01:12:58.824Z,93624.28
2024-04-24T01:13:55.849Z,93612.63
2024-04-24T01:14:52.884Z,93617.59
2024-04-24T01:15:57.756Z,93568.53
2024-04-24T01:16:55.087Z,93644.16
2024-04-24T01:17:55.963Z,93585.25
2024-04-24T01:19:22.316Z,93640.66
2024-04-24T01:20:27.334Z,93645.56
2024-04-24T01:21:53.097Z,93633.50
2024-04-24T01:22:55.905Z,93656.31
2024-04-24T01:24:05.654Z,93656.22
2024-04-24T01:25:25.633Z,93667.75
2024-04-24T01:26:37.869Z,93650.50
2024-04-24T01:27:34.937Z,93653.47
2024-04-24T01:28:32.521Z,93625.59
2024-04-24T01:29:29.579Z,93627.06
2024-04-24T01:30:26.680Z,93656.50
2024-04-24T01:31:23.648Z,93648.31
2024-04-24T01:32:20.639Z,93647.50
2024-04-24T01:33:18.295Z,93669.06
2024-04-24T01:34:16.167Z,93648.47
2024-04-24T01:35:13.132Z,93627.47
2024-04-24T01:36:10.196Z,93673.34
2024-04-24T01:37:07.173Z,93665.00
2024-04-24T01:38:06.059Z,93646.22
2024-04-24T01:39:05.834Z,93640.94
2024-04-24T01:40:03.088Z,93678.06
2024-04-24T01:41:00.135Z,93638.13
2024-04-24T01:41:57.162Z,93668.84
2024-04-24T01:42:54.256Z,93661.78
2024-04-24T01:43:51.360Z,93656.22
2024-04-24T01:44:48.349Z,93641.47
2024-04-24T01:45:45.398Z,93640.69
2024-04-24T01:46:42.434Z,93677.84
2024-04-24T01:47:39.525Z,93674.84
2024-04-24T01:48:36.608Z,93658.66
2024-04-24T01:49:33.665Z,93675.34
2024-04-24T01:50:30.630Z,93693.41
2024-04-24T01:51:27.634Z,93686.50
2024-04-24T01:52:24.597Z,93686.22
2024-04-24T01:53:21.657Z,93698.03
2024-04-24T01:54:18.669Z,93690.72
2024-04-24T01:55:15.635Z,93670.88
2024-04-24T01:56:13.637Z,93656.88
2024-04-24T01:57:10.733Z,93685.31
2024-04-24T01:58:07.718Z,93683.25
2024-04-24T01:59:04.796Z,93694.56
2024-04-24T02:00:01.795Z,93667.28
2024-04-24T02:00:58.853Z,93701.72
2024-04-24T02:01:55.979Z,93694.69
2024-04-24T02:02:53.127Z,93702.91
2024-04-24T02:03:50.230Z,93674.91
2024-04-24T02:04:47.222Z,93709.16
2024-04-24T02:05:44.308Z,93704.72
2024-04-24T02:06:41.326Z,93709.78
2024-04-24T02:07:38.267Z,93661.59
2024-04-24T02:08:37.061Z,93707.97
2024-04-24T02:09:34.070Z,93680.63
2024-04-24T02:10:31.029Z,93654.91
2024-04-24T02:11:51.336Z,93695.84
2024-04-24T02:12:53.942Z,93707.75
2024-04-24T02:13:50.898Z,93710.22
2024-04-24T02:14:47.840Z,93714.25
2024-04-24T02:15:44.869Z,93708.34
2024-04-24T02:16:41.796Z,93678.19
2024-04-24T02:17:38.811Z,93707.28
2024-04-24T02:18:35.876Z,93717.72
2024-04-24T02:19:32.917Z,93667.19
2024-04-24T02:20:29.882Z,93704.66
2024-04-24T02:21:26.879Z,93677.19
2024-04-24T02:22:23.879Z,93703.31
2024-04-24T02:23:24.540Z,93672.69
2024-04-24T02:24:41.447Z,93694.88
2024-04-24T02:25:38.418Z,93681.53
2024-04-24T02:26:35.669Z,93704.59
2024-04-24T02:27:32.704Z,93708.69
2024-04-24T02:28:29.626Z,93712.34
2024-04-24T02:29:30.250Z,93707.69
2024-04-24T02:30:31.578Z,93700.56
2024-04-24T02:31:28.607Z,93710.22
2024-04-24T02:32:25.650Z,93702.75
2024-04-24T02:33:22.831Z,93681.75
2024-04-24T02:34:19.855Z,93673.09
2024-04-24T02:35:17.079Z,93689.28
2024-04-24T02:36:14.182Z,93712.34
2024-04-24T02:37:11.246Z,93718.97
2024-04-24T02:38:09.118Z,93717.31
2024-04-24T02:39:06.139Z,93715.25
2024-04-24T02:40:03.298Z,93714.50
2024-04-24T02:41:00.443Z,93693.94
2024-04-24T02:41:57.556Z,93700.22
2024-04-24T02:42:54.574Z,93681.47
2024-04-24T02:43:51.523Z,93714.06
2024-04-24T02:44:48.477Z,93688.38
2024-04-24T02:45:47.104Z,93702.31
2024-04-24T02:46:44.109Z,93691.19
2024-04-24T02:47:41.193Z,93693.34
2024-04-24T02:48:38.292Z,93726.75
2024-04-24T02:49:35.333Z,93682.03
2024-04-24T02:50:33.063Z,93731.78
2024-04-24T02:51:30.094Z,93725.63
2024-04-24T02:52:27.149Z,93718.84
2024-04-24T02:53:24.279Z,93691.88
2024-04-24T02:54:21.366Z,93728.91
2024-04-24T02:55:18.413Z,93714.63
2024-04-24T02:56:15.452Z,93688.59
2024-04-24T02:57:12.439Z,93725.69
2024-04-24T02:58:09.443Z,93706.13
2024-04-24T02:59:06.461Z,93725.69
2024-04-24T03:00:04.149Z,93736.47
2024-04-24T03:01:01.159Z,93699.25
2024-04-24T03:01:58.237Z,93731.13
2024-04-24T03:02:55.337Z,93694.28
2024-04-24T03:03:52.349Z,93734.34
2024-04-24T03:04:49.347Z,93707.03
2024-04-24T03:05:46.365Z,93732.50
2024-04-24T03:06:44.699Z,93711.47
2024-04-24T03:07:41.914Z,93718.97
2024-04-24T03:08:38.976Z,93723.44
2024-04-24T03:09:36.226Z,93701.00
2024-04-24T03:10:33.252Z,93732.56
2024-04-24T03:11:30.349Z,93700.38
2024-04-24T03:12:27.564Z,93726.06
2024-04-24T03:13:24.593Z,93724.19
2024-04-24T03:14:22.237Z,93730.97
2024-04-24T03:15:19.391Z,93734.88
2024-04-24T03:16:16.428Z,93703.50
2024-04-24T03:17:13.592Z,93684.22
2024-04-24T03:18:10.800Z,93700.91
2024-04-24T03:19:07.909Z,93742.88
2024-04-24T03:20:05.326Z,93734.28
2024-04-24T03:21:02.430Z,93735.88
2024-04-24T03:21:59.576Z,93729.50
2024-04-24T03:22:56.612Z,93706.63
2024-04-24T03:23:53.607Z,93737.22
2024-04-24T03:24:50.538Z,93719.81
2024-04-24T03:25:47.685Z,93736.44
2024-04-24T03:26:44.746Z,93742.94
2024-04-24T03:27:41.763Z,93736.59
2024-04-24T03:28:39.810Z,93702.09
2024-04-24T03:29:36.792Z,93748.56
2024-04-24T03:30:33.795Z,93717.09
2024-04-24T03:31:35.079Z,93715.59
2024-04-24T03:32:32.177Z,93751.13
2024-04-24T03:33:29.371Z,93755.56
2024-04-24T03:34:26.566Z,93726.94
2024-04-24T03:35:23.639Z,93761.03
2024-04-24T03:36:20.790Z,93751.16
2024-04-24T03:37:17.756Z,93733.94
2024-04-24T03:38:14.720Z,93743.84
2024-04-24T03:39:11.866Z,93716.72
2024-04-24T03:40:09.121Z,93762.19
2024-04-24T03:41:06.127Z,93745.06
2024-04-24T03:42:03.081Z,93717.19
2024-04-24T03:43:00.105Z,93761.09
2024-04-24T03:43:57.115Z,93739.94
2024-04-24T03:44:54.137Z,93759.59
2024-04-24T03:45:51.118Z,93762.72
2024-04-24T03:46:48.177Z,93751.16
2024-04-24T03:47:45.269Z,93765.75
2024-04-24T03:48:42.624Z,93728.09
2024-04-24T03:49:39.730Z,93731.78
2024-04-24T03:50:36.734Z,93750.59
2024-04-24T03:51:34.088Z,93736.34
2024-04-24T03:52:31.005Z,93743.50
2024-04-24T03:53:28.045Z,93765.47
2024-04-24T03:54:25.025Z,93760.97
2024-04-24T03:55:22.046Z,93766.75
2024-04-24T03:56:19.034Z,93770.75
2024-04-24T03:57:16.107Z,93768.63
2024-04-24T03:58:13.081Z,93759.47
2024-04-24T03:59:10.084Z,93769.22
2024-04-24T04:00:07.859Z,93727.66
2024-04-24T04:01:04.930Z,93750.22
2024-04-24T04:02:02.014Z,93741.19
2024-04-24T04:02:59.252Z,93732.94
2024-04-24T04:03:57.191Z,93772.38
2024-04-24T04:04:55.694Z,93767.59
2024-04-24T04:05:52.754Z,93772.53
2024-04-24T04:06:49.821Z,93775.59
2024-04-24T04:07:47.117Z,93774.53
2024-04-24T04:08:44.144Z,93772.31
2024-04-24T04:09:41.308Z,93785.34
2024-04-24T04:10:38.396Z,93737.91
2024-04-24T04:11:35.644Z,93760.19
2024-04-24T04:12:32.811Z,93771.03
2024-04-24T04:13:29.819Z,93740.09
2024-04-24T04:14:26.977Z,93775.59
2024-04-24T04:15:24.057Z,93785.00
2024-04-24T04:16:21.111Z,93781.84
2024-04-24T04:17:18.173Z,93774.16
2024-04-24T04:18:15.367Z,93778.59
2024-04-24T04:19:12.654Z,93788.44
2024-04-24T04:20:10.143Z,93784.28
2024-04-24T04:21:07.263Z,93775.06
2024-04-24T04:22:04.631Z,93778.22
2024-04-24T04:23:02.503Z,93776.88
2024-04-24T04:23:59.840Z,93779.47
2024-04-24T04:24:56.864Z,93767.22
2024-04-24T04:25:53.961Z,93761.72
2024-04-24T04:26:50.971Z,93783.66
2024-04-24T04:27:47.960Z,93760.13
2024-04-24T04:28:44.980Z,93769.50
2024-04-24T04:29:42.038Z,93759.47
2024-04-24T04:30:39.038Z,93755.53
2024-04-24T04:31:36.092Z,93782.13
2024-04-24T04:32:33.257Z,93751.41
2024-04-24T04:33:30.650Z,93767.59
2024-04-24T04:34:27.746Z,93778.72
2024-04-24T04:35:24.798Z,93782.50
2024-04-24T04:36:22.051Z,93757.06
2024-04-24T04:37:19.314Z,93787.00
2024-04-24T04:38:16.578Z,93762.88
2024-04-24T04:39:13.902Z,93766.84
2024-04-24T04:40:11.267Z,93773.19
2024-04-24T04:41:08.557Z,93778.47
2024-04-24T04:42:05.722Z,93789.53
2024-04-24T04:43:03.687Z,93792.28
2024-04-24T04:44:02.464Z,93784.09
2024-04-24T04:45:03.810Z,93798.69
2024-04-24T04:46:07.614Z,93786.44
2024-04-24T04:47:10.271Z,93778.47
2024-04-24T04:48:14.784Z,93790.59
2024-04-24T04:49:12.123Z,93763.16
2024-04-24T04:50:11.438Z,93798.41
2024-04-24T04:51:09.278Z,93817.72
2024-04-24T04:52:07.319Z,93784.97
2024-04-24T04:53:07.845Z,93800.63
2024-04-24T04:54:12.502Z,93790.34
2024-04-24T04:55:59.171Z,93788.19
2024-04-24T04:58:10.536Z,93791.97
2024-04-24T04:59:17.879Z,93785.09
2024-04-24T05:03:14.866Z,93783.03
2024-04-24T05:16:41.490Z,93766.81
2024-04-24T05:18:57.977Z,93734.25
2024-04-24T05:20:09.918Z,93785.09
2024-04-24T05:21:11.370Z,93769.47
2024-04-24T05:22:32.833Z,93779.81
2024-04-24T05:24:59.683Z,93770.84
2024-04-24T05:26:48.746Z,93777.16
2024-04-24T05:28:05.150Z,93786.16
2024-04-24T05:29:06.160Z,93775.06
2024-04-24T05:30:07.260Z,93783.81
2024-04-24T05:31:18.780Z,93779.34
2024-04-24T05:32:31.747Z,93778.81
2024-04-24T05:36:16.577Z,93783.88
2024-04-24T05:38:06.269Z,93777.25
2024-04-24T05:42:33.571Z,93790.91
2024-04-24T05:43:36.133Z,93773.94
2024-04-24T05:47:19.974Z,93759.16
2024-04-24T05:48:29.887Z,93801.53
2024-04-24T05:49:30.277Z,93758.59
2024-04-24T05:50:39.683Z,93776.38
2024-04-24T05:51:39.389Z,93775.50
2024-04-24T05:52:41.550Z,93753.81
2024-04-24T05:54:46.121Z,93793.13
2024-04-24T05:56:11.721Z,93795.19
2024-04-24T05:57:32.890Z,93798.44
2024-04-24T05:59:20.661Z,93795.25
2024-04-24T06:03:36.154Z,93801.84
2024-04-24T06:18:36.979Z,93779.09
2024-04-24T06:27:25.203Z,93778.78
2024-04-24T06:30:51.233Z,93775.16
2024-04-24T07:29:45.289Z,93766.78
2024-04-24T09:18:30.409Z,93746.22
2024-04-24T09:49:12.327Z,93699.34
2024-04-24T09:50:17.200Z,93712.00
2024-04-24T09:57:47.218Z,93709.25
2024-04-24T10:27:45.603Z,93687.75
2024-04-24T10:31:20.136Z,93687.94
2024-04-24T10:57:03.784Z,93688.72
2024-04-24T12:27:13.477Z,93523.19
2024-04-24T15:20:48.198Z,93496.38
2024-04-24T15:21:56.071Z,93503.25
2024-04-24T15:55:29.575Z,93409.50
2024-04-24T15:56:27.075Z,93508.34
2024-04-24T15:57:24.355Z,93514.28
2024-04-24T15:58:22.713Z,93516.94
2024-04-24T15:59:19.761Z,93513.31
2024-04-24T16:00:16.954Z,93459.25
2024-04-24T16:01:14.110Z,93496.81
2024-04-24T16:02:11.212Z,93487.84
2024-04-24T16:03:08.407Z,93489.59
2024-04-24T16:04:05.501Z,93477.78
2024-04-24T16:05:02.640Z,93505.88
2024-04-24T16:05:59.771Z,93505.34
2024-04-24T16:06:56.920Z,93509.91
2024-04-24T16:07:53.969Z,93505.00
2024-04-24T16:08:51.093Z,93475.53
2024-04-24T16:09:48.153Z,93498.50
2024-04-24T16:10:48.832Z,93500.88
2024-04-24T16:11:45.950Z,93500.63
2024-04-24T16:12:43.203Z,93481.59
2024-04-24T16:13:40.440Z,93521.97
2024-04-24T16:14:37.856Z,93496.59
2024-04-24T16:15:34.856Z,93505.09
2024-04-24T16:16:31.894Z,93464.66
2024-04-24T16:17:29.120Z,93466.25
2024-04-24T16:18:32.865Z,93468.44
2024-04-24T16:19:33.534Z,93504.06
2024-04-24T16:20:30.707Z,93480.66
2024-04-24T16:21:28.541Z,93496.06
2024-04-24T16:22:25.835Z,93501.88
2024-04-24T16:23:23.478Z,93501.31
2024-04-24T16:24:20.714Z,93476.56
2024-04-24T16:25:17.756Z,93511.28
2024-04-24T16:26:16.081Z,93475.28
2024-04-24T16:27:13.364Z,93495.13
2024-04-24T16:28:11.389Z,93484.94
2024-04-24T16:29:08.411Z,93483.47
2024-04-24T16:30:10.018Z,93483.84
2024-04-24T16:31:07.046Z,93510.41
2024-04-24T16:32:04.242Z,93519.00
2024-04-24T16:33:01.332Z,93486.25
2024-04-24T16:33:58.503Z,93495.72
2024-04-24T16:34:55.882Z,93518.22
2024-04-24T16:35:53.734Z,93513.88
2024-04-24T16:36:50.680Z,93520.91
2024-04-24T16:37:48.488Z,93510.13
2024-04-24T16:38:45.590Z,93512.13
2024-04-24T16:39:42.795Z,93488.31
2024-04-24T16:40:40.707Z,93515.16
2024-04-24T16:41:38.459Z,93525.72
2024-04-24T16:42:35.511Z,93524.75
2024-04-24T16:43:34.425Z,93519.03
2024-04-24T16:44:31.471Z,93472.84
2024-04-24T16:45:28.478Z,93519.03
2024-04-24T16:46:26.520Z,93521.78
2024-04-24T16:47:23.793Z,93506.69
2024-04-24T16:48:21.080Z,93511.53
2024-04-24T16:49:18.998Z,93481.59
2024-04-24T16:50:16.119Z,93512.28
2024-04-24T16:51:13.200Z,93504.84
2024-04-24T16:52:13.772Z,93496.84
2024-04-24T16:53:11.126Z,93515.81
2024-04-24T16:54:08.095Z,93497.66
2024-04-24T16:55:05.367Z,93485.19
2024-04-24T16:56:02.327Z,93513.22
2024-04-24T16:56:59.283Z,93499.09
2024-04-24T16:57:56.223Z,93498.13
2024-04-24T16:58:53.172Z,93504.75
2024-04-24T16:59:50.143Z,93476.09
2024-04-24T17:00:47.307Z,93486.94
2024-04-24T17:01:44.265Z,93517.34
2024-04-24T17:02:41.805Z,93518.69
2024-04-24T17:03:39.814Z,93486.91
2024-04-24T17:04:37.389Z,93516.47
2024-04-24T17:05:34.407Z,93511.34
2024-04-24T17:06:31.359Z,93519.03
2024-04-24T17:07:28.374Z,93527.50
2024-04-24T17:08:25.366Z,93527.50
2024-04-24T17:09:22.340Z,93537.13
2024-04-24T17:10:19.235Z,93526.59
2024-04-24T17:11:16.338Z,93530.41
2024-04-24T17:12:13.407Z,93459.13
2024-04-24T17:13:10.349Z,93531.34
2024-04-24T17:14:07.359Z,93504.47
2024-04-24T17:15:05.663Z,93531.94
2024-04-24T17:16:02.601Z,93542.19
2024-04-24T17:16:59.761Z,93514.56
2024-04-24T17:17:57.221Z,93532.41
2024-04-24T17:18:54.404Z,93533.97
2024-04-24T17:19:51.377Z,93522.91
2024-04-24T17:20:49.009Z,93548.34
2024-04-24T17:21:46.007Z,93517.88
2024-04-24T17:22:43.322Z,93519.75
2024-04-24T17:23:40.369Z,93547.69
2024-04-24T17:24:37.360Z,93542.56
2024-04-24T17:25:34.555Z,93543.09
2024-04-24T17:26:36.939Z,93563.66
2024-04-24T17:27:35.995Z,93565.03
2024-04-24T17:28:32.954Z,93561.50
2024-04-24T17:29:29.981Z,93567.41
2024-04-24T17:30:26.968Z,93555.22
2024-04-24T17:31:23.971Z,93564.56
2024-04-24T17:32:21.443Z,93565.38
2024-04-24T17:33:18.531Z,93530.47
2024-04-24T17:34:15.549Z,93521.78
2024-04-24T17:35:12.558Z,93576.47
2024-04-24T17:36:10.762Z,93571.38
2024-04-24T17:37:07.818Z,93572.31
2024-04-24T17:38:05.085Z,93569.44
2024-04-24T17:39:02.342Z,93552.72
2024-04-24T17:39:59.335Z,93550.53
2024-04-24T17:40:56.306Z,93573.16
2024-04-24T17:41:53.599Z,93553.03
2024-04-24T17:42:50.720Z,93561.25
2024-04-24T17:43:47.679Z,93514.19
2024-04-24T17:44:44.649Z,93591.56
2024-04-24T17:45:42.203Z,93589.41
2024-04-24T17:46:39.204Z,93571.41
2024-04-24T17:47:36.308Z,93553.19
2024-04-24T17:48:34.522Z,93572.09
2024-04-24T17:49:31.552Z,93584.38
2024-04-24T17:50:28.535Z,93584.59
2024-04-24T17:51:25.818Z,93563.59
2024-04-24T17:52:23.732Z,93566.56
2024-04-24T17:53:20.779Z,93562.09
2024-04-24T17:54:17.729Z,93591.28
2024-04-24T17:55:14.776Z,93561.44
2024-04-24T17:56:11.790Z,93564.31
2024-04-24T17:57:08.814Z,93589.69
2024-04-24T17:58:05.779Z,93595.16
2024-04-24T17:59:02.961Z,93604.97
2024-04-24T18:00:02.047Z,93594.78
2024-04-24T18:00:59.196Z,93585.50
2024-04-24T18:01:56.633Z,93601.44
2024-04-24T18:02:53.633Z,93620.09
2024-04-24T18:03:50.716Z,93611.84
2024-04-24T18:04:47.780Z,93589.72
2024-04-24T18:05:47.281Z,93612.97
2024-04-24T18:06:44.418Z,93607.84
2024-04-24T18:07:41.553Z,93607.09
2024-04-24T18:08:38.569Z,93624.09
2024-04-24T18:09:35.581Z,93590.97
2024-04-24T18:10:32.628Z,93623.13
2024-04-24T18:11:30.559Z,93597.53
2024-04-24T18:12:27.867Z,93630.56
2024-04-24T18:13:24.773Z,93629.34
2024-04-24T18:14:21.813Z,93624.28
2024-04-24T18:15:18.849Z,93631.69
2024-04-24T18:16:15.961Z,93632.00
2024-04-24T18:17:13.022Z,93643.97
2024-04-24T18:18:10.163Z,93611.19
2024-04-24T18:19:07.218Z,93631.03
2024-04-24T18:20:04.739Z,93623.84
2024-04-24T18:21:03.628Z,93631.69
2024-04-24T18:22:00.600Z,93642.00
2024-04-24T18:22:57.626Z,93621.19
2024-04-24T18:23:54.633Z,93651.81
2024-04-24T18:24:51.672Z,93627.00
2024-04-24T18:25:48.965Z,93634.94
2024-04-24T18:26:46.124Z,93645.88
2024-04-24T18:27:45.078Z,93640.75
2024-04-24T18:28:42.506Z,93651.34
2024-04-24T18:29:39.689Z,93633.91
2024-04-24T18:30:36.813Z,93621.88
2024-04-24T18:31:33.926Z,93652.84
2024-04-24T18:32:31.009Z,93630.34
2024-04-24T18:33:28.256Z,93647.81
2024-04-24T18:34:25.338Z,93613.47
2024-04-24T18:35:22.678Z,93622.97
2024-04-24T18:36:19.943Z,93645.16
2024-04-24T18:37:17.104Z,93653.53
2024-04-24T18:38:14.176Z,93630.59
2024-04-24T18:39:11.466Z,93654.06
2024-04-24T18:40:10.168Z,93641.06
2024-04-24T18:41:08.304Z,93653.75
2024-04-24T18:42:05.502Z,93641.69
2024-04-24T18:43:02.629Z,93618.44
2024-04-24T18:43:59.937Z,93600.19
2024-04-24T18:44:56.995Z,93600.72
2024-04-24T18:45:54.059Z,93635.88
2024-04-24T18:46:51.064Z,93595.50
2024-04-24T18:47:48.174Z,93637.72
2024-04-24T18:48:45.349Z,93646.25
2024-04-24T18:49:42.603Z,93633.00
2024-04-24T18:50:39.981Z,93604.19
2024-04-24T18:51:37.112Z,93635.06
2024-04-24T18:52:34.118Z,93645.63
2024-04-24T18:53:32.174Z,93637.72
2024-04-24T18:54:29.242Z,93616.22
2024-04-24T18:55:26.310Z,93644.13
2024-04-24T18:56:24.311Z,93632.03
2024-04-24T18:57:21.309Z,93656.38
2024-04-24T18:58:18.439Z,93656.41
2024-04-24T18:59:15.542Z,93615.69
2024-04-24T19:00:13.782Z,93656.44
2024-04-24T19:01:11.088Z,93639.56
2024-04-24T19:02:08.296Z,93664.94
2024-04-24T19:03:05.799Z,93667.53
2024-04-24T19:04:03.524Z,93670.50
2024-04-24T19:05:00.616Z,93671.34
2024-04-24T19:05:57.736Z,93632.31
2024-04-24T19:06:54.796Z,93665.00
2024-04-24T19:07:51.834Z,93672.44
2024-04-24T19:08:50.556Z,93661.84
2024-04-24T19:09:47.583Z,93648.69
2024-04-24T19:10:44.643Z,93655.09
2024-04-24T19:11:42.118Z,93663.19
2024-04-24T19:12:39.254Z,93655.06
2024-04-24T19:13:36.457Z,93673.56
2024-04-24T19:14:33.584Z,93645.56
2024-04-24T19:15:30.931Z,93674.13
2024-04-24T19:16:28.066Z,93668.66
2024-04-24T19:17:26.568Z,93676.25
2024-04-24T19:18:24.377Z,93650.13
2024-04-24T19:19:21.593Z,93631.13
2024-04-24T19:20:18.603Z,93689.13
2024-04-24T19:21:15.996Z,93676.38
2024-04-24T19:22:13.481Z,93659.38
2024-04-24T19:23:10.981Z,93680.59
2024-04-24T19:24:08.196Z,93644.44
2024-04-24T19:25:05.702Z,93692.84
2024-04-24T19:26:02.961Z,93662.97
2024-04-24T19:27:00.053Z,93637.00
2024-04-24T19:27:57.137Z,93699.97
2024-04-24T19:28:54.106Z,93696.81
2024-04-24T19:29:51.142Z,93703.44
2024-04-24T19:30:48.148Z,93656.38
2024-04-24T19:31:45.265Z,93677.81
2024-04-24T19:32:42.483Z,93634.75
2024-04-24T19:33:39.688Z,93681.28
2024-04-24T19:34:36.776Z,93668.03
2024-04-24T19:35:34.081Z,93679.69
2024-04-24T19:36:31.175Z,93687.91
2024-04-24T19:37:30.882Z,93680.50
2024-04-24T19:38:28.181Z,93679.69
2024-04-24T19:39:25.235Z,93683.38
2024-04-24T19:40:23.713Z,93696.88
2024-04-24T19:41:21.390Z,93668.63
2024-04-24T19:42:18.515Z,93703.84
2024-04-24T19:43:15.643Z,93674.50
2024-04-24T19:44:13.595Z,93610.03
2024-04-24T19:45:10.723Z,93685.09
2024-04-24T19:46:08.537Z,93685.09
2024-04-24T19:47:05.603Z,93689.06
2024-04-24T19:48:02.724Z,93698.88
2024-04-24T19:48:59.755Z,93693.59
2024-04-24T19:49:56.748Z,93685.16
2024-04-24T19:50:53.858Z,93690.69
2024-04-24T19:51:50.889Z,93667.16
2024-04-24T19:52:48.516Z,93678.53
2024-04-24T19:53:45.585Z,93647.56
2024-04-24T19:54:43.855Z,93657.91
2024-04-24T19:55:40.871Z,93688.81
2024-04-24T19:56:39.933Z,93675.59
2024-04-24T19:57:37.143Z,93642.81
2024-04-24T19:58:34.650Z,93644.41
2024-04-24T19:59:32.074Z,93666.59
2024-04-24T20:00:29.188Z,93667.44
2024-04-24T20:01:26.235Z,93662.41
2024-04-24T20:02:25.308Z,93661.88
2024-04-24T20:03:25.179Z,93637.03
2024-04-24T20:04:22.694Z,93663.75
2024-04-24T20:05:19.904Z,93656.06
2024-04-24T20:06:19.374Z,93637.03
2024-04-24T20:07:16.505Z,93657.63
2024-04-24T20:08:13.786Z,93621.41
2024-04-24T20:09:10.784Z,93627.25
2024-04-24T20:10:10.391Z,93659.78
2024-04-24T20:11:09.099Z,93625.91
2024-04-24T20:12:06.326Z,93640.44
2024-04-24T20:13:03.502Z,93641.00
2024-04-24T20:14:00.637Z,93637.56
2024-04-24T20:14:58.798Z,93614.31
2024-04-24T20:16:02.392Z,93583.91
2024-04-24T20:16:59.453Z,93656.34
2024-04-24T20:17:57.704Z,93614.03
2024-04-24T20:18:54.901Z,93596.84
2024-04-24T20:19:51.918Z,93646.00
2024-04-24T20:20:48.969Z,93653.94
2024-04-24T20:21:46.145Z,93668.78
2024-04-24T20:22:46.124Z,93643.09
2024-04-24T20:23:43.427Z,93649.44
2024-04-24T20:24:40.666Z,93674.06
2024-04-24T20:25:37.844Z,93642.59
2024-04-24T20:26:34.983Z,93671.41
2024-04-24T20:27:32.332Z,93608.47
2024-04-24T20:28:31.539Z,93646.28
2024-04-24T20:29:28.617Z,93670.88
2024-04-24T20:30:26.522Z,93676.94
2024-04-24T20:31:27.921Z,93679.84
2024-04-24T20:32:25.146Z,93683.56
2024-04-24T20:33:25.097Z,93678.28
2024-04-24T20:34:22.197Z,93650.00
2024-04-24T20:35:19.299Z,93682.50
2024-04-24T20:36:16.522Z,93679.88
2024-04-24T20:37:13.714Z,93674.56
2024-04-24T20:38:12.445Z,93680.94
2024-04-24T20:39:10.391Z,93668.50
2024-04-24T20:40:08.040Z,93670.34
2024-04-24T20:41:07.495Z,93677.22
2024-04-24T20:42:06.395Z,93671.94
2024-04-24T20:43:05.302Z,93672.72
2024-04-24T20:44:03.424Z,93628.03
2024-04-24T20:45:00.904Z,93677.53
2024-04-24T20:45:57.969Z,93668.00
2024-04-24T20:46:55.063Z,93633.06
2024-04-24T20:47:52.606Z,93662.94
2024-04-24T20:48:50.178Z,93671.91
2024-04-24T20:49:47.545Z,93662.16
2024-04-24T20:50:44.888Z,93667.44
2024-04-24T20:51:42.648Z,93674.03
2024-04-24T20:52:39.920Z,93653.91
2024-04-24T20:53:37.310Z,93667.16
2024-04-24T20:54:34.727Z,93672.72
2024-04-24T20:55:33.207Z,93674.28
2024-04-24T20:56:30.360Z,93670.88
2024-04-24T20:57:27.799Z,93682.50
2024-04-24T20:58:24.971Z,93678.25
2024-04-24T20:59:24.073Z,93636.72
2024-04-24T21:00:21.229Z,93656.03
2024-04-24T21:01:18.763Z,93631.75
2024-04-24T21:02:16.203Z,93669.25
2024-04-24T21:03:14.096Z,93661.88
2024-04-24T21:04:11.527Z,93664.00
2024-04-24T21:05:08.781Z,93656.31
2024-04-24T21:06:07.333Z,93638.03
2024-04-24T21:07:05.256Z,93662.91
2024-04-24T21:08:02.412Z,93655.50
2024-04-24T21:08:59.526Z,93644.94
2024-04-24T21:09:56.638Z,93616.38
2024-04-24T21:10:53.637Z,93631.47
2024-04-24T21:11:51.259Z,93666.63
2024-04-24T21:12:48.403Z,93667.69
2024-04-24T21:13:45.695Z,93630.94
2024-04-24T21:14:43.194Z,93660.28
2024-04-24T21:15:42.337Z,93664.00
2024-04-24T21:16:39.569Z,93659.25
2024-04-24T21:17:36.594Z,93646.25
2024-04-24T21:18:34.988Z,93637.00
2024-04-24T21:19:32.126Z,93663.72
2024-04-24T21:20:29.177Z,93636.22
2024-04-24T21:21:27.836Z,93630.38
2024-04-24T21:22:25.190Z,93664.50
2024-04-24T21:23:22.359Z,93669.25
2024-04-24T21:24:19.761Z,93677.19
2024-04-24T21:25:17.065Z,93673.50
2024-04-24T21:26:14.560Z,93674.81
2024-04-24T21:27:14.445Z,93676.66
2024-04-24T21:28:14.686Z,93677.72
2024-04-24T21:29:12.770Z,93658.94
2024-04-24T21:30:10.552Z,93641.22
2024-04-24T21:31:07.888Z,93640.69
2024-04-24T21:32:05.277Z,93665.59
2024-04-24T21:33:03.199Z,93653.66
2024-04-24T21:34:00.665Z,93645.47
2024-04-24T21:34:57.967Z,93674.56
2024-04-24T21:35:56.629Z,93687.00